createdAt,value
2023-04-01T08:01:07.550Z,23.19
2023-04-01T08:02:07.596Z,23.42
2023-04-01T08:03:07.730Z,23.48
2023-04-01T08:04:07.789Z,23.53
2023-04-01T08:05:07.701Z,23.55
2023-04-01T08:06:07.742Z,23.59
2023-04-01T08:07:07.793Z,23.60
2023-04-01T08:08:07.785Z,23.63
2023-04-01T08:09:07.785Z,23.63
2023-04-01T08:10:07.805Z,23.65
2023-04-01T08:11:07.816Z,23.65
2023-04-01T08:12:07.889Z,23.67
2023-04-01T08:13:07.957Z,23.68
2023-04-01T08:14:07.993Z,23.69
2023-04-01T08:15:08.031Z,23.69
2023-04-01T08:16:08.098Z,23.71
2023-04-01T08:17:08.142Z,23.71
2023-04-01T08:18:08.232Z,23.72
2023-04-01T08:19:08.227Z,23.73
2023-04-01T08:20:08.270Z,23.74
2023-04-01T08:21:08.270Z,23.74
2023-04-01T08:22:08.330Z,23.75
2023-04-01T08:23:08.333Z,23.77
2023-04-01T08:24:08.388Z,23.77
2023-04-01T08:25:08.449Z,23.78
2023-04-01T08:26:08.438Z,23.79
2023-04-01T08:27:08.469Z,23.79
2023-04-01T08:28:08.521Z,23.80
2023-04-01T08:29:08.508Z,23.79
2023-04-01T08:30:10.386Z,23.80
2023-04-01T08:31:08.585Z,23.81
2023-04-01T08:32:08.691Z,23.82
2023-04-01T08:33:08.678Z,23.81
2023-04-01T08:34:08.692Z,23.82
2023-04-01T08:35:08.752Z,23.82
2023-04-01T08:36:08.803Z,23.83
2023-04-01T08:37:08.783Z,23.83
2023-04-01T08:38:08.816Z,23.83
2023-04-01T08:39:08.820Z,23.84
2023-04-01T08:40:08.838Z,23.84
2023-04-01T08:41:08.916Z,23.84
2023-04-01T08:42:08.925Z,23.84
2023-04-01T08:43:08.946Z,23.85
2023-04-01T08:44:08.963Z,23.85
2023-04-01T08:45:08.982Z,23.85
2023-04-01T08:46:09.135Z,23.86
2023-04-01T08:47:09.125Z,23.87
2023-04-01T08:48:09.122Z,23.86
2023-04-01T08:49:09.140Z,23.87
2023-04-01T08:50:09.162Z,23.87
2023-04-01T08:51:09.155Z,23.88
2023-04-01T08:52:09.202Z,23.88
2023-04-01T08:53:09.225Z,23.88
2023-04-01T08:54:09.224Z,23.89
2023-04-01T08:55:09.262Z,23.89
2023-04-01T08:56:09.307Z,23.89
2023-04-01T08:57:09.336Z,23.90
2023-04-01T08:58:09.330Z,23.90
2023-04-01T08:59:09.409Z,23.90
2023-04-01T09:00:09.392Z,23.91
2023-04-01T09:01:09.392Z,23.91
2023-04-01T09:02:09.480Z,23.91
2023-04-01T09:03:09.605Z,23.92
2023-04-01T09:04:09.530Z,23.92
2023-04-01T09:05:09.490Z,23.92
2023-04-01T09:06:09.509Z,23.93
2023-04-01T09:07:11.541Z,23.94
2023-04-01T09:08:09.545Z,23.93
2023-04-01T09:09:09.537Z,23.93
2023-04-01T09:10:09.558Z,23.94
2023-04-01T09:11:09.542Z,23.93
2023-04-01T09:12:09.594Z,23.95
2023-04-01T09:13:09.509Z,23.94
2023-04-01T09:14:09.515Z,23.94
2023-04-01T09:15:09.495Z,23.95
2023-04-01T09:16:09.511Z,23.95
2023-04-01T09:17:09.522Z,23.95
2023-04-01T09:18:09.628Z,23.95
2023-04-01T09:19:10.035Z,23.96
2023-04-01T09:20:09.466Z,23.96
2023-04-01T09:21:09.501Z,23.96
2023-04-01T09:22:09.453Z,23.95
2023-04-01T09:23:09.436Z,23.95
2023-04-01T09:24:09.456Z,23.95
2023-04-01T09:25:09.432Z,23.95
2023-04-01T09:26:09.454Z,23.95
2023-04-01T09:27:09.441Z,23.96
2023-04-01T09:28:09.391Z,23.95
2023-04-01T09:29:09.423Z,23.96
2023-04-01T09:30:09.398Z,23.95
2023-04-01T09:31:09.443Z,23.96
2023-04-01T09:32:09.451Z,23.96
2023-04-01T09:33:09.378Z,23.96
2023-04-01T09:34:09.362Z,23.97
2023-04-01T09:35:09.395Z,23.96
2023-04-01T09:36:09.520Z,23.97
2023-04-01T09:37:09.356Z,23.98
2023-04-01T09:38:09.363Z,23.97
2023-04-01T09:39:09.358Z,23.98
2023-04-01T09:40:09.340Z,23.97
2023-04-01T09:41:09.338Z,23.97
2023-04-01T09:42:09.309Z,23.98
2023-04-01T09:43:09.310Z,23.98
2023-04-01T09:44:09.307Z,23.98
2023-04-01T09:45:09.339Z,23.98
2023-04-01T09:46:09.332Z,23.98
2023-04-01T09:47:09.280Z,23.98
2023-04-01T09:48:09.302Z,23.99
2023-04-01T09:49:09.249Z,23.99
2023-04-01T09:50:09.259Z,23.99
2023-04-01T09:51:09.254Z,23.99
2023-04-01T09:52:09.292Z,23.99
2023-04-01T09:53:09.253Z,24.00
2023-04-01T09:54:09.937Z,24.00
2023-04-01T09:55:09.222Z,24.00
2023-04-01T09:56:09.231Z,24.00
2023-04-01T09:57:09.256Z,24.00
2023-04-01T09:58:09.236Z,24.01
2023-04-01T09:59:09.203Z,24.00
2023-04-01T10:00:09.204Z,24.00
2023-04-01T10:01:09.192Z,24.00
2023-04-01T10:02:09.273Z,24.01
2023-04-01T10:03:09.205Z,24.00
2023-04-01T10:04:09.153Z,24.00
2023-04-01T10:05:09.225Z,23.99
2023-04-01T10:06:09.262Z,24.00
2023-04-01T10:07:09.138Z,24.00
2023-04-01T10:08:09.168Z,24.00
2023-04-01T10:09:09.182Z,24.00
2023-04-01T10:10:09.139Z,24.01
2023-04-01T10:11:09.125Z,24.01
2023-04-01T10:12:09.103Z,24.00
2023-04-01T10:13:09.129Z,24.02
2023-04-01T10:14:09.135Z,24.01
2023-04-01T10:15:09.136Z,24.01
2023-04-01T10:16:09.190Z,24.01
2023-04-01T10:17:09.190Z,24.01
2023-04-01T10:18:09.227Z,24.01
2023-04-01T10:19:09.207Z,24.01
2023-04-01T10:20:09.293Z,24.01
2023-04-01T10:21:09.287Z,24.01
2023-04-01T10:22:09.328Z,24.01
2023-04-01T10:23:09.353Z,24.01
2023-04-01T10:24:09.406Z,24.02
2023-04-01T10:25:09.352Z,24.02
2023-04-01T10:26:09.450Z,24.03
2023-04-01T10:27:09.388Z,24.03
2023-04-01T10:28:09.479Z,24.03
2023-04-01T10:29:09.435Z,24.03
2023-04-01T10:30:09.502Z,24.03
2023-04-01T10:31:09.450Z,24.04
2023-04-01T10:32:09.745Z,24.04
2023-04-01T10:33:09.536Z,24.04
2023-04-01T10:34:09.571Z,24.04
2023-04-01T10:35:09.523Z,24.04
2023-04-01T10:36:09.647Z,24.06
2023-04-01T10:37:09.593Z,24.06
2023-04-01T10:38:09.609Z,24.06
2023-04-01T10:39:09.662Z,24.07
2023-04-01T10:40:09.591Z,24.06
2023-04-01T10:41:10.474Z,24.08
2023-04-01T10:42:09.617Z,24.07
2023-04-01T10:43:09.615Z,24.08
2023-04-01T10:44:09.687Z,24.08
2023-04-01T10:45:09.696Z,24.08
2023-04-01T10:46:09.703Z,24.09
2023-04-01T10:47:09.731Z,24.08
2023-04-01T10:48:09.770Z,24.10
2023-04-01T10:49:09.725Z,24.10
2023-04-01T10:50:09.720Z,24.10
2023-04-01T10:51:09.746Z,24.10
2023-04-01T10:52:09.772Z,24.10
2023-04-01T10:53:09.797Z,24.10
2023-04-01T10:54:09.767Z,24.11
2023-04-01T10:55:09.794Z,24.12
2023-04-01T10:56:09.817Z,24.12
2023-04-01T10:57:09.862Z,24.12
2023-04-01T10:58:09.840Z,24.12
2023-04-01T10:59:09.874Z,24.12
2023-04-01T11:00:09.844Z,24.13
2023-04-01T11:01:09.969Z,24.14
2023-04-01T11:02:11.949Z,24.13
2023-04-01T11:03:09.982Z,24.15
2023-04-01T11:04:09.912Z,24.17
2023-04-01T11:05:09.892Z,24.17
2023-04-01T11:06:09.935Z,24.17
2023-04-01T11:07:09.966Z,24.18
2023-04-01T11:08:09.997Z,24.20
2023-04-01T11:09:09.949Z,24.21
2023-04-01T11:10:09.948Z,24.20
2023-04-01T11:11:09.983Z,24.21
2023-04-01T11:12:10.030Z,24.22
2023-04-01T11:13:09.989Z,24.23
2023-04-01T11:14:10.034Z,24.24
2023-04-01T11:15:10.078Z,24.25
2023-04-01T11:16:10.133Z,24.25
2023-04-01T11:17:10.066Z,24.25
2023-04-01T11:18:10.085Z,24.26
2023-04-01T11:19:10.053Z,24.27
2023-04-01T11:20:10.076Z,24.28
2023-04-01T11:21:10.078Z,24.28
2023-04-01T11:22:10.098Z,24.29
2023-04-01T11:23:10.112Z,24.30
2023-04-01T11:24:10.078Z,24.31
2023-04-01T11:25:10.062Z,24.32
2023-04-01T11:26:10.113Z,24.32
2023-04-01T11:27:10.193Z,24.33
2023-04-01T11:28:10.085Z,24.33
2023-04-01T11:29:10.118Z,24.35
2023-04-01T11:30:10.115Z,24.34
2023-04-01T11:31:10.173Z,24.34
2023-04-01T11:32:10.135Z,24.35
2023-04-01T11:33:10.201Z,24.34
2023-04-01T11:34:10.156Z,24.35
2023-04-01T11:35:10.176Z,24.36
2023-04-01T11:36:10.156Z,24.36
2023-04-01T11:37:10.169Z,24.37
2023-04-01T11:38:10.147Z,24.38
2023-04-01T11:39:10.167Z,24.38
2023-04-01T11:40:10.172Z,24.38
2023-04-01T11:41:10.251Z,24.38
2023-04-01T11:42:10.211Z,24.39
2023-04-01T11:43:11.665Z,24.40
2023-04-01T11:44:10.227Z,24.40
2023-04-01T11:45:10.244Z,24.41
2023-04-01T11:46:10.261Z,24.42
2023-04-01T11:47:10.250Z,24.43
2023-04-01T11:48:10.234Z,24.43
2023-04-01T11:49:10.183Z,24.44
2023-04-01T11:50:10.165Z,24.44
2023-04-01T11:51:10.197Z,24.44
2023-04-01T11:52:10.173Z,24.44
2023-04-01T11:53:10.196Z,24.44
2023-04-01T11:54:10.160Z,24.44
2023-04-01T11:55:10.199Z,24.44
2023-04-01T11:56:10.159Z,24.45
2023-04-01T11:57:10.199Z,24.45
2023-04-01T11:58:10.136Z,24.45
2023-04-01T11:59:10.142Z,24.45
2023-04-01T12:00:10.165Z,24.45
2023-04-01T12:01:10.097Z,24.46
2023-04-01T12:02:10.161Z,24.46
2023-04-01T12:03:10.217Z,24.47
2023-04-01T12:04:10.264Z,24.47
2023-04-01T12:05:10.067Z,24.47
2023-04-01T12:06:10.143Z,24.48
2023-04-01T12:07:10.103Z,24.48
2023-04-01T12:08:10.100Z,24.48
2023-04-01T12:09:10.136Z,24.48
2023-04-01T12:10:10.159Z,24.48
2023-04-01T12:11:10.192Z,24.48
2023-04-01T12:12:10.227Z,24.48
2023-04-01T12:13:10.242Z,24.49
2023-04-01T12:14:10.247Z,24.49
2023-04-01T12:15:10.295Z,24.50
2023-04-01T12:16:10.349Z,24.51
2023-04-01T12:17:10.346Z,24.53
2023-04-01T12:18:10.438Z,24.53
2023-04-01T12:19:10.445Z,24.53
2023-04-01T12:20:10.562Z,24.52
2023-04-01T12:21:10.503Z,24.54
2023-04-01T12:22:10.534Z,24.54
2023-04-01T12:23:10.598Z,24.54
2023-04-01T12:24:10.611Z,24.54
2023-04-01T12:25:10.656Z,24.54
2023-04-01T12:26:10.769Z,24.54
2023-04-01T12:27:10.778Z,24.55
2023-04-01T12:28:10.815Z,24.54
2023-04-01T12:29:10.846Z,24.53
2023-04-01T12:30:10.926Z,24.53
2023-04-01T12:31:10.972Z,24.54
2023-04-01T12:32:11.087Z,24.55
2023-04-01T12:33:11.098Z,24.55
2023-04-01T12:34:11.105Z,24.55
2023-04-01T12:35:11.169Z,24.56
2023-04-01T12:36:11.279Z,24.57
2023-04-01T12:37:11.276Z,24.56
2023-04-01T12:38:11.332Z,24.56
2023-04-01T12:39:11.356Z,24.56
2023-04-01T12:40:11.368Z,24.55
2023-04-01T12:41:11.521Z,24.55
2023-04-01T12:42:11.545Z,24.54
2023-04-01T12:43:11.543Z,24.54
2023-04-01T12:44:11.600Z,24.55
2023-04-01T12:45:11.637Z,24.54
2023-04-01T12:46:11.668Z,24.54
2023-04-01T12:47:11.727Z,24.55
2023-04-01T12:48:11.833Z,24.56
2023-04-01T12:49:11.819Z,24.57
2023-04-01T12:50:11.862Z,24.56
2023-04-01T12:51:11.891Z,24.57
2023-04-01T12:52:11.964Z,24.55
2023-04-01T12:53:12.000Z,24.55
2023-04-01T12:54:12.036Z,24.56
2023-04-01T12:55:12.122Z,24.55
2023-04-01T12:56:12.182Z,24.56
2023-04-01T12:57:12.288Z,24.55
2023-04-01T12:58:12.265Z,24.56
2023-04-01T12:59:12.317Z,24.56
2023-04-01T13:00:12.375Z,24.56
